sensor_id;sensor_type;location;lat;lon;timestamp;P1;durP1;ratioP1;P2;durP2;ratioP2
29314;SDS011;16320;53.954;9.506;2023-02-28T00:02:09;8.65;;;4.53;;
29314;SDS011;16320;53.954;9.506;2023-02-28T00:05:15;9.93;;;5.78;;
29314;SDS011;16320;53.954;9.506;2023-02-28T00:08:22;14.32;;;5.57;;
29314;SDS011;16320;53.954;9.506;2023-02-28T00:11:26;13.70;;;5.82;;
29314;SDS011;16320;53.954;9.506;2023-02-28T00:14:31;11.60;;;5.28;;
29314;SDS011;16320;53.954;9.506;2023-02-28T00:17:37;13.70;;;5.78;;
29314;SDS011;16320;53.954;9.506;2023-02-28T00:20:41;9.65;;;5.85;;
29314;SDS011;16320;53.954;9.506;2023-02-28T00:23:46;14.63;;;5.93;;
29314;SDS011;16320;53.954;9.506;2023-02-28T00:26:50;8.27;;;4.78;;
29314;SDS011;16320;53.954;9.506;2023-02-28T00:29:55;12.75;;;6.20;;
29314;SDS011;16320;53.954;9.506;2023-02-28T00:32:59;9.73;;;4.85;;
29314;SDS011;16320;53.954;9.506;2023-02-28T00:36:05;14.18;;;5.20;;
29314;SDS011;16320;53.954;9.506;2023-02-28T00:39:13;10.07;;;4.97;;
29314;SDS011;16320;53.954;9.506;2023-02-28T00:42:17;8.32;;;4.32;;
29314;SDS011;16320;53.954;9.506;2023-02-28T00:45:21;12.90;;;5.53;;
29314;SDS011;16320;53.954;9.506;2023-02-28T00:48:26;17.20;;;5.50;;
29314;SDS011;16320;53.954;9.506;2023-02-28T00:51:30;9.15;;;4.68;;
29314;SDS011;16320;53.954;9.506;2023-02-28T00:54:34;8.00;;;3.55;;
29314;SDS011;16320;53.954;9.506;2023-02-28T00:57:39;7.65;;;2.65;;
29314;SDS011;16320;53.954;9.506;2023-02-28T01:00:43;7.97;;;3.65;;
29314;SDS011;16320;53.954;9.506;2023-02-28T01:03:52;7.25;;;2.80;;
29314;SDS011;16320;53.954;9.506;2023-02-28T01:06:56;7.95;;;3.35;;
29314;SDS011;16320;53.954;9.506;2023-02-28T01:10:01;10.23;;;3.30;;
29314;SDS011;16320;53.954;9.506;2023-02-28T01:13:05;6.30;;;3.75;;
29314;SDS011;16320;53.954;9.506;2023-02-28T01:16:10;5.22;;;3.10;;
29314;SDS011;16320;53.954;9.506;2023-02-28T01:19:15;9.55;;;3.05;;
29314;SDS011;16320;53.954;9.506;2023-02-28T01:22:19;17.42;;;4.65;;
29314;SDS011;16320;53.954;9.506;2023-02-28T01:25:24;11.25;;;5.03;;
29314;SDS011;16320;53.954;9.506;2023-02-28T01:28:28;9.85;;;4.20;;
29314;SDS011;16320;53.954;9.506;2023-02-28T01:31:34;11.48;;;5.45;;
29314;SDS011;16320;53.954;9.506;2023-02-28T01:34:39;12.15;;;5.75;;
29314;SDS011;16320;53.954;9.506;2023-02-28T01:37:43;9.68;;;4.82;;
29314;SDS011;16320;53.954;9.506;2023-02-28T01:40:48;10.90;;;5.22;;
29314;SDS011;16320;53.954;9.506;2023-02-28T01:44:05;7.95;;;4.28;;
29314;SDS011;16320;53.954;9.506;2023-02-28T01:47:48;12.52;;;5.22;;
29314;SDS011;16320;53.954;9.506;2023-02-28T01:50:56;8.43;;;5.22;;
29314;SDS011;16320;53.954;9.506;2023-02-28T01:54:06;10.35;;;4.82;;
29314;SDS011;16320;53.954;9.506;2023-02-28T01:57:18;11.18;;;4.95;;
29314;SDS011;16320;53.954;9.506;2023-02-28T02:00:27;18.25;;;5.47;;
29314;SDS011;16320;53.954;9.506;2023-02-28T02:03:33;11.93;;;5.70;;
29314;SDS011;16320;53.954;9.506;2023-02-28T02:06:43;15.48;;;5.25;;
29314;SDS011;16320;53.954;9.506;2023-02-28T02:09:59;9.18;;;6.03;;
29314;SDS011;16320;53.954;9.506;2023-02-28T02:20:24;10.40;;;4.85;;
29314;SDS011;16320;53.954;9.506;2023-02-28T02:41:27;8.07;;;3.60;;
29314;SDS011;16320;53.954;9.506;2023-02-28T02:45:02;8.95;;;4.05;;
29314;SDS011;16320;53.954;9.506;2023-02-28T02:48:13;6.53;;;4.53;;
29314;SDS011;16320;53.954;9.506;2023-02-28T02:51:23;11.05;;;4.65;;
29314;SDS011;16320;53.954;9.506;2023-02-28T02:54:30;11.82;;;3.97;;
29314;SDS011;16320;53.954;9.506;2023-02-28T02:57:47;11.95;;;5.53;;
29314;SDS011;16320;53.954;9.506;2023-02-28T03:00:58;7.68;;;4.32;;
29314;SDS011;16320;53.954;9.506;2023-02-28T03:04:11;10.20;;;5.55;;
29314;SDS011;16320;53.954;9.506;2023-02-28T03:07:22;10.95;;;4.78;;
29314;SDS011;16320;53.954;9.506;2023-02-28T03:10:31;9.10;;;5.55;;
29314;SDS011;16320;53.954;9.506;2023-02-28T03:13:48;8.95;;;4.88;;
29314;SDS011;16320;53.954;9.506;2023-02-28T03:21:21;12.10;;;4.63;;
29314;SDS011;16320;53.954;9.506;2023-02-28T03:28:30;10.88;;;4.70;;
29314;SDS011;16320;53.954;9.506;2023-02-28T03:32:29;13.25;;;4.95;;
29314;SDS011;16320;53.954;9.506;2023-02-28T03:35:45;8.27;;;4.60;;
29314;SDS011;16320;53.954;9.506;2023-02-28T03:39:06;9.85;;;4.47;;
29314;SDS011;16320;53.954;9.506;2023-02-28T03:42:24;9.60;;;4.57;;
29314;SDS011;16320;53.954;9.506;2023-02-28T03:45:35;9.77;;;4.55;;
29314;SDS011;16320;53.954;9.506;2023-02-28T03:48:43;11.68;;;4.80;;
29314;SDS011;16320;53.954;9.506;2023-02-28T03:52:03;13.65;;;4.05;;
29314;SDS011;16320;53.954;9.506;2023-02-28T03:55:11;12.40;;;4.22;;
29314;SDS011;16320;53.954;9.506;2023-02-28T03:58:24;8.23;;;4.15;;
29314;SDS011;16320;53.954;9.506;2023-02-28T04:01:43;11.82;;;4.70;;
29314;SDS011;16320;53.954;9.506;2023-02-28T04:04:50;8.70;;;4.20;;
29314;SDS011;16320;53.954;9.506;2023-02-28T04:08:03;19.55;;;4.88;;
29314;SDS011;16320;53.954;9.506;2023-02-28T04:14:38;6.93;;;4.28;;
29314;SDS011;16320;53.954;9.506;2023-02-28T04:17:43;6.53;;;4.13;;
29314;SDS011;16320;53.954;9.506;2023-02-28T04:20:47;7.97;;;4.32;;
29314;SDS011;16320;53.954;9.506;2023-02-28T04:26:55;8.55;;;4.18;;
29314;SDS011;16320;53.954;9.506;2023-02-28T04:30:02;8.20;;;4.15;;
29314;SDS011;16320;53.954;9.506;2023-02-28T04:33:07;10.10;;;4.38;;
29314;SDS011;16320;53.954;9.506;2023-02-28T04:36:11;10.13;;;3.63;;
29314;SDS011;16320;53.954;9.506;2023-02-28T04:39:17;9.95;;;4.22;;
29314;SDS011;16320;53.954;9.506;2023-02-28T04:42:22;10.57;;;4.15;;
29314;SDS011;16320;53.954;9.506;2023-02-28T04:45:26;8.55;;;3.97;;
29314;SDS011;16320;53.954;9.506;2023-02-28T04:48:35;8.93;;;4.20;;
29314;SDS011;16320;53.954;9.506;2023-02-28T04:51:41;12.65;;;4.28;;
29314;SDS011;16320;53.954;9.506;2023-02-28T04:54:46;8.60;;;3.97;;
29314;SDS011;16320;53.954;9.506;2023-02-28T04:57:50;11.77;;;4.78;;
29314;SDS011;16320;53.954;9.506;2023-02-28T05:01:01;5.32;;;3.75;;
29314;SDS011;16320;53.954;9.506;2023-02-28T05:04:16;6.13;;;3.72;;
29314;SDS011;16320;53.954;9.506;2023-02-28T05:07:21;8.80;;;3.70;;
29314;SDS011;16320;53.954;9.506;2023-02-28T05:10:25;16.65;;;4.90;;
29314;SDS011;16320;53.954;9.506;2023-02-28T05:13:30;7.20;;;4.22;;
29314;SDS011;16320;53.954;9.506;2023-02-28T05:16:34;9.35;;;4.05;;
29314;SDS011;16320;53.954;9.506;2023-02-28T05:19:38;12.63;;;4.05;;
29314;SDS011;16320;53.954;9.506;2023-02-28T05:22:43;7.65;;;3.72;;
29314;SDS011;16320;53.954;9.506;2023-02-28T05:25:48;12.80;;;4.47;;
29314;SDS011;16320;53.954;9.506;2023-02-28T05:28:53;7.60;;;4.15;;
29314;SDS011;16320;53.954;9.506;2023-02-28T05:31:58;11.82;;;3.95;;
29314;SDS011;16320;53.954;9.506;2023-02-28T05:35:03;8.70;;;3.78;;
29314;SDS011;16320;53.954;9.506;2023-02-28T05:38:08;10.30;;;3.45;;
29314;SDS011;16320;53.954;9.506;2023-02-28T05:41:12;11.32;;;3.63;;
29314;SDS011;16320;53.954;9.506;2023-02-28T05:44:17;9.80;;;4.40;;
29314;SDS011;16320;53.954;9.506;2023-02-28T05:47:21;8.50;;;3.17;;
29314;SDS011;16320;53.954;9.506;2023-02-28T05:50:26;8.65;;;3.45;;
29314;SDS011;16320;53.954;9.506;2023-02-28T05:53:30;8.82;;;3.72;;
29314;SDS011;16320;53.954;9.506;2023-02-28T05:56:35;8.25;;;3.38;;
29314;SDS011;16320;53.954;9.506;2023-02-28T05:59:41;10.70;;;4.35;;
29314;SDS011;16320;53.954;9.506;2023-02-28T06:02:45;13.82;;;4.13;;
29314;SDS011;16320;53.954;9.506;2023-02-28T06:05:49;9.07;;;4.70;;
29314;SDS011;16320;53.954;9.506;2023-02-28T06:08:54;9.98;;;4.18;;
29314;SDS011;16320;53.954;9.506;2023-02-28T06:11:59;9.38;;;4.38;;
29314;SDS011;16320;53.954;9.506;2023-02-28T06:15:07;12.85;;;4.30;;
29314;SDS011;16320;53.954;9.506;2023-02-28T06:18:19;11.15;;;4.45;;
29314;SDS011;16320;53.954;9.506;2023-02-28T06:21:23;11.98;;;4.85;;
29314;SDS011;16320;53.954;9.506;2023-02-28T06:24:28;12.73;;;5.13;;
29314;SDS011;16320;53.954;9.506;2023-02-28T06:27:34;14.57;;;4.75;;
29314;SDS011;16320;53.954;9.506;2023-02-28T06:30:38;9.65;;;4.97;;
29314;SDS011;16320;53.954;9.506;2023-02-28T06:33:43;9.45;;;4.10;;
29314;SDS011;16320;53.954;9.506;2023-02-28T06:36:50;7.13;;;3.90;;
29314;SDS011;16320;53.954;9.506;2023-02-28T06:39:55;13.85;;;4.15;;
29314;SDS011;16320;53.954;9.506;2023-02-28T06:43:00;9.27;;;4.00;;
29314;SDS011;16320;53.954;9.506;2023-02-28T06:46:05;7.65;;;4.30;;
29314;SDS011;16320;53.954;9.506;2023-02-28T06:49:11;11.52;;;4.65;;
29314;SDS011;16320;53.954;9.506;2023-02-28T06:52:16;10.93;;;5.82;;
29314;SDS011;16320;53.954;9.506;2023-02-28T06:55:20;16.50;;;5.90;;
29314;SDS011;16320;53.954;9.506;2023-02-28T06:58:25;11.95;;;5.22;;
29314;SDS011;16320;53.954;9.506;2023-02-28T07:01:30;11.65;;;5.63;;
29314;SDS011;16320;53.954;9.506;2023-02-28T07:04:36;11.80;;;5.38;;
29314;SDS011;16320;53.954;9.506;2023-02-28T07:07:43;16.85;;;5.80;;
29314;SDS011;16320;53.954;9.506;2023-02-28T07:10:53;12.18;;;5.68;;
29314;SDS011;16320;53.954;9.506;2023-02-28T07:13:59;13.52;;;5.88;;
29314;SDS011;16320;53.954;9.506;2023-02-28T07:17:04;9.60;;;4.88;;
29314;SDS011;16320;53.954;9.506;2023-02-28T07:20:12;9.43;;;4.80;;
29314;SDS011;16320;53.954;9.506;2023-02-28T07:23:16;9.85;;;5.00;;
29314;SDS011;16320;53.954;9.506;2023-02-28T07:26:21;14.85;;;5.63;;
29314;SDS011;16320;53.954;9.506;2023-02-28T07:29:25;13.75;;;4.88;;
29314;SDS011;16320;53.954;9.506;2023-02-28T07:32:30;11.77;;;5.10;;
29314;SDS011;16320;53.954;9.506;2023-02-28T07:35:35;9.20;;;4.75;;
29314;SDS011;16320;53.954;9.506;2023-02-28T07:38:39;7.28;;;4.40;;
29314;SDS011;16320;53.954;9.506;2023-02-28T07:41:51;14.57;;;5.13;;
29314;SDS011;16320;53.954;9.506;2023-02-28T07:44:55;8.57;;;4.68;;
29314;SDS011;16320;53.954;9.506;2023-02-28T07:47:59;15.52;;;4.18;;
29314;SDS011;16320;53.954;9.506;2023-02-28T07:51:04;13.25;;;4.75;;
29314;SDS011;16320;53.954;9.506;2023-02-28T07:54:08;7.38;;;3.80;;
29314;SDS011;16320;53.954;9.506;2023-02-28T07:57:13;6.25;;;3.45;;
29314;SDS011;16320;53.954;9.506;2023-02-28T08:00:17;10.35;;;3.90;;
29314;SDS011;16320;53.954;9.506;2023-02-28T08:03:23;8.63;;;3.42;;
29314;SDS011;16320;53.954;9.506;2023-02-28T08:06:27;5.68;;;3.40;;
29314;SDS011;16320;53.954;9.506;2023-02-28T08:09:32;4.82;;;3.30;;
29314;SDS011;16320;53.954;9.506;2023-02-28T08:12:37;8.85;;;4.30;;
29314;SDS011;16320;53.954;9.506;2023-02-28T08:15:42;9.50;;;3.85;;
29314;SDS011;16320;53.954;9.506;2023-02-28T08:18:46;10.07;;;3.85;;
29314;SDS011;16320;53.954;9.506;2023-02-28T08:21:52;8.82;;;3.92;;
29314;SDS011;16320;53.954;9.506;2023-02-28T08:24:57;7.88;;;3.30;;
29314;SDS011;16320;53.954;9.506;2023-02-28T08:31:09;6.78;;;3.20;;
29314;SDS011;16320;53.954;9.506;2023-02-28T08:34:15;11.38;;;3.90;;
29314;SDS011;16320;53.954;9.506;2023-02-28T08:37:20;9.02;;;3.88;;
29314;SDS011;16320;53.954;9.506;2023-02-28T08:40:25;8.63;;;3.60;;
29314;SDS011;16320;53.954;9.506;2023-02-28T08:43:29;7.35;;;3.75;;
29314;SDS011;16320;53.954;9.506;2023-02-28T08:46:33;7.63;;;3.70;;
29314;SDS011;16320;53.954;9.506;2023-02-28T08:49:38;12.45;;;3.90;;
29314;SDS011;16320;53.954;9.506;2023-02-28T08:52:42;8.20;;;3.58;;
29314;SDS011;16320;53.954;9.506;2023-02-28T08:55:47;6.22;;;3.22;;
29314;SDS011;16320;53.954;9.506;2023-02-28T08:58:59;7.45;;;3.72;;
29314;SDS011;16320;53.954;9.506;2023-02-28T09:02:08;11.02;;;3.80;;
29314;SDS011;16320;53.954;9.506;2023-02-28T09:05:16;6.22;;;2.80;;
29314;SDS011;16320;53.954;9.506;2023-02-28T09:08:21;6.95;;;2.80;;
29314;SDS011;16320;53.954;9.506;2023-02-28T09:11:26;12.85;;;2.55;;
29314;SDS011;16320;53.954;9.506;2023-02-28T09:14:32;4.93;;;2.55;;
29314;SDS011;16320;53.954;9.506;2023-02-28T09:17:36;7.47;;;2.55;;
29314;SDS011;16320;53.954;9.506;2023-02-28T09:20:41;7.30;;;2.33;;
29314;SDS011;16320;53.954;9.506;2023-02-28T09:23:47;15.65;;;3.20;;
29314;SDS011;16320;53.954;9.506;2023-02-28T09:26:55;6.15;;;2.28;;
29314;SDS011;16320;53.954;9.506;2023-02-28T09:30:08;9.98;;;3.22;;
29314;SDS011;16320;53.954;9.506;2023-02-28T09:33:13;5.65;;;2.25;;
29314;SDS011;16320;53.954;9.506;2023-02-28T09:36:18;6.00;;;3.10;;
29314;SDS011;16320;53.954;9.506;2023-02-28T09:39:24;7.70;;;2.90;;
29314;SDS011;16320;53.954;9.506;2023-02-28T09:42:33;9.55;;;3.60;;
29314;SDS011;16320;53.954;9.506;2023-02-28T09:45:39;6.07;;;2.95;;
29314;SDS011;16320;53.954;9.506;2023-02-28T09:48:47;7.28;;;2.90;;
29314;SDS011;16320;53.954;9.506;2023-02-28T09:52:04;7.22;;;2.35;;
29314;SDS011;16320;53.954;9.506;2023-02-28T09:56:01;5.47;;;2.40;;
29314;SDS011;16320;53.954;9.506;2023-02-28T09:59:02;3.63;;;2.35;;
29314;SDS011;16320;53.954;9.506;2023-02-28T10:02:55;5.55;;;2.13;;
29314;SDS011;16320;53.954;9.506;2023-02-28T10:06:18;6.32;;;2.47;;
29314;SDS011;16320;53.954;9.506;2023-02-28T10:09:26;4.38;;;2.35;;
29314;SDS011;16320;53.954;9.506;2023-02-28T10:12:36;5.80;;;1.98;;
29314;SDS011;16320;53.954;9.506;2023-02-28T10:15:50;6.57;;;2.10;;
29314;SDS011;16320;53.954;9.506;2023-02-28T10:19:03;6.90;;;2.40;;
29314;SDS011;16320;53.954;9.506;2023-02-28T10:25:29;5.82;;;2.92;;
29314;SDS011;16320;53.954;9.506;2023-02-28T10:28:34;4.10;;;2.17;;
29314;SDS011;16320;53.954;9.506;2023-02-28T10:31:38;3.75;;;2.63;;
29314;SDS011;16320;53.954;9.506;2023-02-28T10:34:44;9.15;;;3.83;;
29314;SDS011;16320;53.954;9.506;2023-02-28T10:37:50;5.63;;;2.30;;
29314;SDS011;16320;53.954;9.506;2023-02-28T10:41:05;6.80;;;2.75;;
29314;SDS011;16320;53.954;9.506;2023-02-28T10:47:24;5.32;;;2.83;;
29314;SDS011;16320;53.954;9.506;2023-02-28T10:53:49;4.47;;;2.70;;
29314;SDS011;16320;53.954;9.506;2023-02-28T11:00:33;10.07;;;3.58;;
29314;SDS011;16320;53.954;9.506;2023-02-28T11:03:39;4.28;;;2.60;;
29314;SDS011;16320;53.954;9.506;2023-02-28T11:06:43;4.70;;;2.75;;
29314;SDS011;16320;53.954;9.506;2023-02-28T11:09:49;5.57;;;2.60;;
29314;SDS011;16320;53.954;9.506;2023-02-28T11:12:56;10.00;;;3.30;;
29314;SDS011;16320;53.954;9.506;2023-02-28T11:16:04;6.00;;;2.80;;
29314;SDS011;16320;53.954;9.506;2023-02-28T11:19:24;7.53;;;2.58;;
29314;SDS011;16320;53.954;9.506;2023-02-28T11:22:35;5.78;;;2.70;;
29314;SDS011;16320;53.954;9.506;2023-02-28T11:25:46;7.90;;;2.92;;
29314;SDS011;16320;53.954;9.506;2023-02-28T11:29:03;5.03;;;2.78;;
29314;SDS011;16320;53.954;9.506;2023-02-28T11:32:32;5.53;;;2.47;;
29314;SDS011;16320;53.954;9.506;2023-02-28T11:35:38;9.60;;;3.15;;
29314;SDS011;16320;53.954;9.506;2023-02-28T11:38:43;6.70;;;2.70;;
29314;SDS011;16320;53.954;9.506;2023-02-28T11:45:38;6.95;;;2.72;;
29314;SDS011;16320;53.954;9.506;2023-02-28T11:52:52;5.97;;;2.67;;
29314;SDS011;16320;53.954;9.506;2023-02-28T12:10:42;5.53;;;1.90;;
29314;SDS011;16320;53.954;9.506;2023-02-28T12:17:32;8.38;;;3.10;;
29314;SDS011;16320;53.954;9.506;2023-02-28T12:28:19;4.35;;;2.30;;
29314;SDS011;16320;53.954;9.506;2023-02-28T12:31:31;5.82;;;2.40;;
29314;SDS011;16320;53.954;9.506;2023-02-28T12:34:46;5.15;;;2.40;;
29314;SDS011;16320;53.954;9.506;2023-02-28T12:37:58;5.40;;;2.78;;
29314;SDS011;16320;53.954;9.506;2023-02-28T12:47:57;3.75;;;2.28;;
29314;SDS011;16320;53.954;9.506;2023-02-28T12:51:07;3.25;;;2.13;;
29314;SDS011;16320;53.954;9.506;2023-02-28T12:57:48;4.22;;;2.50;;
29314;SDS011;16320;53.954;9.506;2023-02-28T13:05:00;5.50;;;2.88;;
29314;SDS011;16320;53.954;9.506;2023-02-28T13:08:50;5.53;;;2.38;;
29314;SDS011;16320;53.954;9.506;2023-02-28T13:12:14;5.38;;;2.50;;
29314;SDS011;16320;53.954;9.506;2023-02-28T13:15:25;3.50;;;2.38;;
29314;SDS011;16320;53.954;9.506;2023-02-28T13:24:53;7.50;;;2.30;;
29314;SDS011;16320;53.954;9.506;2023-02-28T13:28:03;6.88;;;2.20;;
29314;SDS011;16320;53.954;9.506;2023-02-28T13:31:14;11.50;;;2.03;;
29314;SDS011;16320;53.954;9.506;2023-02-28T13:34:21;3.60;;;2.15;;
29314;SDS011;16320;53.954;9.506;2023-02-28T13:40:30;2.33;;;1.55;;
29314;SDS011;16320;53.954;9.506;2023-02-28T13:47:16;6.00;;;1.70;;
29314;SDS011;16320;53.954;9.506;2023-02-28T14:07:45;2.15;;;1.75;;
29314;SDS011;16320;53.954;9.506;2023-02-28T14:11:05;3.33;;;1.77;;
29314;SDS011;16320;53.954;9.506;2023-02-28T14:17:41;1.90;;;1.40;;
29314;SDS011;16320;53.954;9.506;2023-02-28T14:20:47;4.35;;;2.08;;
29314;SDS011;16320;53.954;9.506;2023-02-28T14:24:02;3.00;;;1.70;;
29314;SDS011;16320;53.954;9.506;2023-02-28T14:35:42;5.15;;;2.22;;
29314;SDS011;16320;53.954;9.506;2023-02-28T14:42:31;3.03;;;1.70;;
29314;SDS011;16320;53.954;9.506;2023-02-28T14:45:38;4.80;;;2.47;;
29314;SDS011;16320;53.954;9.506;2023-02-28T14:48:45;5.20;;;2.25;;
29314;SDS011;16320;53.954;9.506;2023-02-28T14:52:12;4.63;;;2.65;;
29314;SDS011;16320;53.954;9.506;2023-02-28T14:55:36;4.35;;;2.72;;
29314;SDS011;16320;53.954;9.506;2023-02-28T14:58:40;25.77;;;20.83;;
29314;SDS011;16320;53.954;9.506;2023-02-28T15:02:16;4.85;;;2.25;;
29314;SDS011;16320;53.954;9.506;2023-02-28T15:05:32;8.43;;;2.65;;
29314;SDS011;16320;53.954;9.506;2023-02-28T15:08:38;7.35;;;3.40;;
29314;SDS011;16320;53.954;9.506;2023-02-28T15:11:45;2.75;;;2.20;;
29314;SDS011;16320;53.954;9.506;2023-02-28T15:14:53;3.78;;;2.38;;
29314;SDS011;16320;53.954;9.506;2023-02-28T15:17:57;3.70;;;2.10;;
29314;SDS011;16320;53.954;9.506;2023-02-28T15:21:06;5.80;;;2.25;;
29314;SDS011;16320;53.954;9.506;2023-02-28T15:24:37;1.92;;;1.75;;
29314;SDS011;16320;53.954;9.506;2023-02-28T15:27:50;2.50;;;1.83;;
29314;SDS011;16320;53.954;9.506;2023-02-28T15:30:59;3.55;;;1.80;;
29314;SDS011;16320;53.954;9.506;2023-02-28T15:34:12;6.10;;;2.13;;
29314;SDS011;16320;53.954;9.506;2023-02-28T15:37:54;3.75;;;2.05;;
29314;SDS011;16320;53.954;9.506;2023-02-28T15:41:30;2.78;;;2.03;;
29314;SDS011;16320;53.954;9.506;2023-02-28T15:44:41;6.03;;;2.40;;
29314;SDS011;16320;53.954;9.506;2023-02-28T15:47:50;4.80;;;2.13;;
29314;SDS011;16320;53.954;9.506;2023-02-28T15:54:12;6.05;;;2.67;;
29314;SDS011;16320;53.954;9.506;2023-02-28T15:57:28;9.70;;;2.45;;
29314;SDS011;16320;53.954;9.506;2023-02-28T16:00:34;6.60;;;5.45;;
29314;SDS011;16320;53.954;9.506;2023-02-28T16:03:45;8.48;;;2.88;;
29314;SDS011;16320;53.954;9.506;2023-02-28T16:10:11;5.50;;;3.03;;
29314;SDS011;16320;53.954;9.506;2023-02-28T16:13:20;5.53;;;2.35;;
29314;SDS011;16320;53.954;9.506;2023-02-28T16:16:25;6.57;;;2.83;;
29314;SDS011;16320;53.954;9.506;2023-02-28T16:19:31;5.25;;;2.67;;
29314;SDS011;16320;53.954;9.506;2023-02-28T16:22:37;6.75;;;2.70;;
29314;SDS011;16320;53.954;9.506;2023-02-28T16:25:44;5.68;;;2.50;;
29314;SDS011;16320;53.954;9.506;2023-02-28T16:28:51;7.57;;;3.50;;
29314;SDS011;16320;53.954;9.506;2023-02-28T16:31:56;6.55;;;2.70;;
29314;SDS011;16320;53.954;9.506;2023-02-28T16:35:01;5.80;;;3.78;;
29314;SDS011;16320;53.954;9.506;2023-02-28T16:38:06;4.72;;;3.30;;
29314;SDS011;16320;53.954;9.506;2023-02-28T16:41:17;5.10;;;3.28;;
29314;SDS011;16320;53.954;9.506;2023-02-28T16:44:27;9.30;;;4.72;;
29314;SDS011;16320;53.954;9.506;2023-02-28T16:47:38;5.90;;;3.58;;
29314;SDS011;16320;53.954;9.506;2023-02-28T16:50:42;4.28;;;3.10;;
29314;SDS011;16320;53.954;9.506;2023-02-28T16:53:48;6.85;;;3.33;;
29314;SDS011;16320;53.954;9.506;2023-02-28T16:56:52;8.20;;;5.18;;
29314;SDS011;16320;53.954;9.506;2023-02-28T16:59:57;9.82;;;4.57;;
29314;SDS011;16320;53.954;9.506;2023-02-28T17:03:01;9.30;;;3.83;;
29314;SDS011;16320;53.954;9.506;2023-02-28T17:06:16;5.15;;;3.33;;
29314;SDS011;16320;53.954;9.506;2023-02-28T17:09:28;10.70;;;4.85;;
29314;SDS011;16320;53.954;9.506;2023-02-28T17:12:46;32.03;;;11.27;;
29314;SDS011;16320;53.954;9.506;2023-02-28T17:15:51;19.73;;;9.32;;
29314;SDS011;16320;53.954;9.506;2023-02-28T17:18:57;19.23;;;11.23;;
29314;SDS011;16320;53.954;9.506;2023-02-28T17:22:07;20.58;;;11.43;;
29314;SDS011;16320;53.954;9.506;2023-02-28T17:25:12;20.13;;;12.27;;
29314;SDS011;16320;53.954;9.506;2023-02-28T17:28:17;13.30;;;8.15;;
29314;SDS011;16320;53.954;9.506;2023-02-28T17:31:22;17.10;;;7.72;;
29314;SDS011;16320;53.954;9.506;2023-02-28T17:34:28;14.68;;;8.77;;
29314;SDS011;16320;53.954;9.506;2023-02-28T17:37:32;20.85;;;8.40;;
29314;SDS011;16320;53.954;9.506;2023-02-28T17:40:36;14.95;;;9.52;;
29314;SDS011;16320;53.954;9.506;2023-02-28T17:43:41;16.67;;;8.20;;
29314;SDS011;16320;53.954;9.506;2023-02-28T17:46:46;16.50;;;8.20;;
29314;SDS011;16320;53.954;9.506;2023-02-28T17:49:51;13.43;;;7.90;;
29314;SDS011;16320;53.954;9.506;2023-02-28T17:52:56;19.35;;;9.73;;
29314;SDS011;16320;53.954;9.506;2023-02-28T17:56:00;16.65;;;9.18;;
29314;SDS011;16320;53.954;9.506;2023-02-28T17:59:04;17.63;;;9.50;;
29314;SDS011;16320;53.954;9.506;2023-02-28T18:02:09;22.02;;;10.75;;
29314;SDS011;16320;53.954;9.506;2023-02-28T18:05:16;19.60;;;10.43;;
29314;SDS011;16320;53.954;9.506;2023-02-28T18:08:21;17.60;;;11.52;;
29314;SDS011;16320;53.954;9.506;2023-02-28T18:11:25;19.05;;;11.60;;
29314;SDS011;16320;53.954;9.506;2023-02-28T18:14:45;17.42;;;9.98;;
29314;SDS011;16320;53.954;9.506;2023-02-28T18:17:51;14.10;;;9.18;;
29314;SDS011;16320;53.954;9.506;2023-02-28T18:20:55;12.50;;;7.68;;
29314;SDS011;16320;53.954;9.506;2023-02-28T18:24:00;18.38;;;8.88;;
29314;SDS011;16320;53.954;9.506;2023-02-28T18:27:05;14.05;;;8.90;;
29314;SDS011;16320;53.954;9.506;2023-02-28T18:30:09;13.73;;;8.18;;
29314;SDS011;16320;53.954;9.506;2023-02-28T18:33:15;13.52;;;8.73;;
29314;SDS011;16320;53.954;9.506;2023-02-28T18:36:20;14.48;;;7.35;;
29314;SDS011;16320;53.954;9.506;2023-02-28T18:39:25;10.35;;;7.05;;
29314;SDS011;16320;53.954;9.506;2023-02-28T18:42:29;10.70;;;5.95;;
29314;SDS011;16320;53.954;9.506;2023-02-28T18:45:34;14.82;;;7.18;;
29314;SDS011;16320;53.954;9.506;2023-02-28T18:48:41;12.15;;;7.18;;
29314;SDS011;16320;53.954;9.506;2023-02-28T18:51:46;11.00;;;6.93;;
29314;SDS011;16320;53.954;9.506;2023-02-28T18:54:51;13.55;;;8.65;;
29314;SDS011;16320;53.954;9.506;2023-02-28T18:57:55;13.95;;;8.20;;
29314;SDS011;16320;53.954;9.506;2023-02-28T19:01:01;13.77;;;7.80;;
29314;SDS011;16320;53.954;9.506;2023-02-28T19:04:15;15.25;;;9.07;;
29314;SDS011;16320;53.954;9.506;2023-02-28T19:07:19;17.27;;;10.93;;
29314;SDS011;16320;53.954;9.506;2023-02-28T19:10:24;18.05;;;10.52;;
29314;SDS011;16320;53.954;9.506;2023-02-28T19:13:28;19.15;;;10.88;;
29314;SDS011;16320;53.954;9.506;2023-02-28T19:16:34;15.10;;;9.15;;
29314;SDS011;16320;53.954;9.506;2023-02-28T19:19:39;15.95;;;9.82;;
29314;SDS011;16320;53.954;9.506;2023-02-28T19:22:48;15.02;;;8.77;;
29314;SDS011;16320;53.954;9.506;2023-02-28T19:25:53;14.32;;;9.50;;
29314;SDS011;16320;53.954;9.506;2023-02-28T19:29:01;13.45;;;8.65;;
29314;SDS011;16320;53.954;9.506;2023-02-28T19:32:07;20.45;;;8.38;;
29314;SDS011;16320;53.954;9.506;2023-02-28T19:35:12;14.93;;;8.73;;
29314;SDS011;16320;53.954;9.506;2023-02-28T19:38:17;14.65;;;8.43;;
29314;SDS011;16320;53.954;9.506;2023-02-28T19:41:22;13.15;;;8.60;;
29314;SDS011;16320;53.954;9.506;2023-02-28T19:44:27;13.05;;;8.73;;
29314;SDS011;16320;53.954;9.506;2023-02-28T19:47:32;16.23;;;8.77;;
29314;SDS011;16320;53.954;9.506;2023-02-28T19:50:36;14.90;;;8.55;;
29314;SDS011;16320;53.954;9.506;2023-02-28T19:53:41;13.18;;;8.52;;
29314;SDS011;16320;53.954;9.506;2023-02-28T19:56:48;13.65;;;8.18;;
29314;SDS011;16320;53.954;9.506;2023-02-28T19:59:52;15.30;;;9.07;;
29314;SDS011;16320;53.954;9.506;2023-02-28T20:02:56;14.25;;;9.43;;
29314;SDS011;16320;53.954;9.506;2023-02-28T20:06:02;19.23;;;9.52;;
29314;SDS011;16320;53.954;9.506;2023-02-28T20:09:10;18.98;;;9.60;;
29314;SDS011;16320;53.954;9.506;2023-02-28T20:12:14;15.10;;;9.88;;
29314;SDS011;16320;53.954;9.506;2023-02-28T20:15:27;16.75;;;10.27;;
29314;SDS011;16320;53.954;9.506;2023-02-28T20:18:32;21.52;;;11.02;;
29314;SDS011;16320;53.954;9.506;2023-02-28T20:21:37;18.17;;;9.23;;
29314;SDS011;16320;53.954;9.506;2023-02-28T20:24:43;18.63;;;9.95;;
29314;SDS011;16320;53.954;9.506;2023-02-28T20:27:48;20.95;;;10.35;;
29314;SDS011;16320;53.954;9.506;2023-02-28T20:30:53;19.35;;;10.85;;
29314;SDS011;16320;53.954;9.506;2023-02-28T20:33:58;17.83;;;11.15;;
29314;SDS011;16320;53.954;9.506;2023-02-28T20:37:03;23.30;;;11.38;;
29314;SDS011;16320;53.954;9.506;2023-02-28T20:40:08;17.77;;;10.73;;
29314;SDS011;16320;53.954;9.506;2023-02-28T20:43:13;22.92;;;11.93;;
29314;SDS011;16320;53.954;9.506;2023-02-28T20:46:17;25.58;;;13.27;;
29314;SDS011;16320;53.954;9.506;2023-02-28T20:49:22;28.35;;;12.82;;
29314;SDS011;16320;53.954;9.506;2023-02-28T20:52:27;32.80;;;15.48;;
29314;SDS011;16320;53.954;9.506;2023-02-28T20:55:31;26.33;;;13.68;;
29314;SDS011;16320;53.954;9.506;2023-02-28T20:58:36;34.63;;;15.32;;
29314;SDS011;16320;53.954;9.506;2023-02-28T21:01:40;24.98;;;12.90;;
29314;SDS011;16320;53.954;9.506;2023-02-28T21:04:47;26.30;;;14.32;;
29314;SDS011;16320;53.954;9.506;2023-02-28T21:07:51;26.67;;;13.23;;
29314;SDS011;16320;53.954;9.506;2023-02-28T21:10:56;22.48;;;12.45;;
29314;SDS011;16320;53.954;9.506;2023-02-28T21:14:02;24.35;;;11.70;;
29314;SDS011;16320;53.954;9.506;2023-02-28T21:17:09;25.70;;;13.45;;
29314;SDS011;16320;53.954;9.506;2023-02-28T21:20:14;22.48;;;12.48;;
29314;SDS011;16320;53.954;9.506;2023-02-28T21:23:24;22.02;;;12.82;;